sensor_id;sensor_type;location;lat;lon;timestamp;P1;durP1;ratioP1;P2;durP2;ratioP2
30617;SDS011;17384;51.214;9.202;2023-11-21T00:02:17;14.07;;;8.43;;
30617;SDS011;17384;51.214;9.202;2023-11-21T00:04:43;18.17;;;9.13;;
30617;SDS011;17384;51.214;9.202;2023-11-21T00:07:08;23.77;;;10.30;;
30617;SDS011;17384;51.214;9.202;2023-11-21T00:09:34;19.77;;;9.32;;
30617;SDS011;17384;51.214;9.202;2023-11-21T00:12:00;16.17;;;9.13;;
30617;SDS011;17384;51.214;9.202;2023-11-21T00:14:25;15.88;;;8.73;;
30617;SDS011;17384;51.214;9.202;2023-11-21T00:16:50;10.90;;;7.75;;
30617;SDS011;17384;51.214;9.202;2023-11-21T00:19:16;12.88;;;7.93;;
30617;SDS011;17384;51.214;9.202;2023-11-21T00:21:42;12.77;;;8.75;;
30617;SDS011;17384;51.214;9.202;2023-11-21T00:24:09;14.02;;;7.40;;
30617;SDS011;17384;51.214;9.202;2023-11-21T00:26:35;12.35;;;7.05;;
30617;SDS011;17384;51.214;9.202;2023-11-21T00:29:03;14.05;;;7.68;;
30617;SDS011;17384;51.214;9.202;2023-11-21T00:31:28;12.05;;;6.47;;
30617;SDS011;17384;51.214;9.202;2023-11-21T00:33:54;19.08;;;6.88;;
30617;SDS011;17384;51.214;9.202;2023-11-21T00:36:20;12.27;;;6.43;;
30617;SDS011;17384;51.214;9.202;2023-11-21T00:38:46;17.60;;;7.03;;
30617;SDS011;17384;51.214;9.202;2023-11-21T00:41:13;10.02;;;6.68;;
30617;SDS011;17384;51.214;9.202;2023-11-21T00:43:38;10.57;;;6.63;;
30617;SDS011;17384;51.214;9.202;2023-11-21T00:46:04;16.85;;;8.25;;
30617;SDS011;17384;51.214;9.202;2023-11-21T00:48:32;12.23;;;7.32;;
30617;SDS011;17384;51.214;9.202;2023-11-21T00:50:58;19.33;;;7.18;;
30617;SDS011;17384;51.214;9.202;2023-11-21T00:53:23;12.77;;;6.85;;
30617;SDS011;17384;51.214;9.202;2023-11-21T00:55:49;25.75;;;7.60;;
30617;SDS011;17384;51.214;9.202;2023-11-21T00:58:14;10.13;;;6.53;;
30617;SDS011;17384;51.214;9.202;2023-11-21T01:00:40;15.40;;;7.40;;
30617;SDS011;17384;51.214;9.202;2023-11-21T01:03:05;10.40;;;6.63;;
30617;SDS011;17384;51.214;9.202;2023-11-21T01:05:32;13.75;;;7.18;;
30617;SDS011;17384;51.214;9.202;2023-11-21T01:07:59;21.63;;;7.45;;
30617;SDS011;17384;51.214;9.202;2023-11-21T01:10:25;14.52;;;6.63;;
30617;SDS011;17384;51.214;9.202;2023-11-21T01:12:50;14.55;;;8.38;;
30617;SDS011;17384;51.214;9.202;2023-11-21T01:15:16;14.77;;;8.18;;
30617;SDS011;17384;51.214;9.202;2023-11-21T01:17:41;21.40;;;9.15;;
30617;SDS011;17384;51.214;9.202;2023-11-21T01:20:08;15.23;;;8.98;;
30617;SDS011;17384;51.214;9.202;2023-11-21T01:22:37;19.38;;;8.82;;
30617;SDS011;17384;51.214;9.202;2023-11-21T01:25:04;15.23;;;8.35;;
30617;SDS011;17384;51.214;9.202;2023-11-21T01:27:32;23.00;;;8.68;;
30617;SDS011;17384;51.214;9.202;2023-11-21T01:29:59;16.20;;;8.07;;
30617;SDS011;17384;51.214;9.202;2023-11-21T01:32:24;16.77;;;6.88;;
30617;SDS011;17384;51.214;9.202;2023-11-21T01:34:50;12.80;;;6.55;;
30617;SDS011;17384;51.214;9.202;2023-11-21T01:37:16;13.35;;;6.25;;
30617;SDS011;17384;51.214;9.202;2023-11-21T01:39:42;12.25;;;5.95;;
30617;SDS011;17384;51.214;9.202;2023-11-21T01:42:11;13.05;;;6.07;;
30617;SDS011;17384;51.214;9.202;2023-11-21T01:44:38;10.98;;;5.32;;
30617;SDS011;17384;51.214;9.202;2023-11-21T01:47:04;9.77;;;3.85;;
30617;SDS011;17384;51.214;9.202;2023-11-21T01:49:34;10.00;;;4.30;;
30617;SDS011;17384;51.214;9.202;2023-11-21T01:52:01;12.10;;;4.68;;
30617;SDS011;17384;51.214;9.202;2023-11-21T01:54:26;7.45;;;3.83;;
30617;SDS011;17384;51.214;9.202;2023-11-21T01:56:56;7.68;;;4.07;;
30617;SDS011;17384;51.214;9.202;2023-11-21T01:59:27;9.25;;;4.13;;
30617;SDS011;17384;51.214;9.202;2023-11-21T02:01:59;14.13;;;4.82;;
30617;SDS011;17384;51.214;9.202;2023-11-21T02:04:24;15.48;;;5.20;;
30617;SDS011;17384;51.214;9.202;2023-11-21T02:06:50;12.15;;;4.35;;
30617;SDS011;17384;51.214;9.202;2023-11-21T02:09:16;13.75;;;5.10;;
30617;SDS011;17384;51.214;9.202;2023-11-21T02:11:42;17.48;;;5.70;;
30617;SDS011;17384;51.214;9.202;2023-11-21T02:14:09;9.88;;;4.70;;
30617;SDS011;17384;51.214;9.202;2023-11-21T02:16:35;7.38;;;3.63;;
30617;SDS011;17384;51.214;9.202;2023-11-21T02:19:01;14.27;;;4.65;;
30617;SDS011;17384;51.214;9.202;2023-11-21T02:21:28;20.02;;;6.10;;
30617;SDS011;17384;51.214;9.202;2023-11-21T02:23:55;22.50;;;6.30;;
30617;SDS011;17384;51.214;9.202;2023-11-21T02:26:21;18.92;;;6.35;;
30617;SDS011;17384;51.214;9.202;2023-11-21T02:28:46;12.73;;;6.00;;
30617;SDS011;17384;51.214;9.202;2023-11-21T02:31:12;15.45;;;6.78;;
30617;SDS011;17384;51.214;9.202;2023-11-21T02:33:38;11.27;;;5.68;;
30617;SDS011;17384;51.214;9.202;2023-11-21T02:36:03;11.20;;;6.22;;
30617;SDS011;17384;51.214;9.202;2023-11-21T02:38:30;17.98;;;6.20;;
30617;SDS011;17384;51.214;9.202;2023-11-21T02:40:57;13.98;;;6.03;;
30617;SDS011;17384;51.214;9.202;2023-11-21T02:43:24;10.15;;;5.63;;
30617;SDS011;17384;51.214;9.202;2023-11-21T02:45:49;14.60;;;6.20;;
30617;SDS011;17384;51.214;9.202;2023-11-21T02:48:15;14.25;;;5.93;;
30617;SDS011;17384;51.214;9.202;2023-11-21T02:50:40;16.60;;;4.80;;
30617;SDS011;17384;51.214;9.202;2023-11-21T02:53:05;11.27;;;5.85;;
30617;SDS011;17384;51.214;9.202;2023-11-21T02:55:31;12.13;;;5.95;;
30617;SDS011;17384;51.214;9.202;2023-11-21T02:57:59;14.52;;;6.03;;
30617;SDS011;17384;51.214;9.202;2023-11-21T03:00:25;14.27;;;6.20;;
30617;SDS011;17384;51.214;9.202;2023-11-21T03:02:50;11.65;;;5.38;;
30617;SDS011;17384;51.214;9.202;2023-11-21T03:05:16;12.23;;;6.40;;
30617;SDS011;17384;51.214;9.202;2023-11-21T03:07:41;10.45;;;5.30;;
30617;SDS011;17384;51.214;9.202;2023-11-21T03:10:07;11.68;;;5.97;;
30617;SDS011;17384;51.214;9.202;2023-11-21T03:12:36;16.27;;;6.28;;
30617;SDS011;17384;51.214;9.202;2023-11-21T03:15:03;12.50;;;5.85;;
30617;SDS011;17384;51.214;9.202;2023-11-21T03:17:31;11.60;;;5.50;;
30617;SDS011;17384;51.214;9.202;2023-11-21T03:19:56;8.85;;;5.57;;
30617;SDS011;17384;51.214;9.202;2023-11-21T03:22:22;17.45;;;6.82;;
30617;SDS011;17384;51.214;9.202;2023-11-21T03:24:48;10.48;;;5.75;;
30617;SDS011;17384;51.214;9.202;2023-11-21T03:27:14;12.43;;;5.32;;
30617;SDS011;17384;51.214;9.202;2023-11-21T03:29:39;14.10;;;6.68;;
30617;SDS011;17384;51.214;9.202;2023-11-21T03:32:04;10.23;;;5.43;;
30617;SDS011;17384;51.214;9.202;2023-11-21T03:34:32;10.70;;;5.85;;
30617;SDS011;17384;51.214;9.202;2023-11-21T03:36:57;12.00;;;5.70;;
30617;SDS011;17384;51.214;9.202;2023-11-21T03:39:23;12.23;;;6.10;;
30617;SDS011;17384;51.214;9.202;2023-11-21T03:41:50;13.23;;;6.30;;
30617;SDS011;17384;51.214;9.202;2023-11-21T03:44:17;9.93;;;6.50;;
30617;SDS011;17384;51.214;9.202;2023-11-21T03:46:43;12.25;;;5.47;;
30617;SDS011;17384;51.214;9.202;2023-11-21T03:49:09;15.13;;;5.68;;
30617;SDS011;17384;51.214;9.202;2023-11-21T03:51:35;10.60;;;5.90;;
30617;SDS011;17384;51.214;9.202;2023-11-21T03:54:01;7.25;;;5.38;;
30617;SDS011;17384;51.214;9.202;2023-11-21T03:56:28;7.18;;;5.00;;
30617;SDS011;17384;51.214;9.202;2023-11-21T03:58:53;4.72;;;3.55;;
30617;SDS011;17384;51.214;9.202;2023-11-21T04:01:20;10.25;;;4.90;;
30617;SDS011;17384;51.214;9.202;2023-11-21T04:03:49;8.63;;;4.82;;
30617;SDS011;17384;51.214;9.202;2023-11-21T04:06:15;11.32;;;5.10;;
30617;SDS011;17384;51.214;9.202;2023-11-21T04:08:42;9.77;;;4.40;;
30617;SDS011;17384;51.214;9.202;2023-11-21T04:11:09;11.77;;;5.93;;
30617;SDS011;17384;51.214;9.202;2023-11-21T04:13:37;18.25;;;6.47;;
30617;SDS011;17384;51.214;9.202;2023-11-21T04:16:06;17.17;;;7.93;;
30617;SDS011;17384;51.214;9.202;2023-11-21T04:18:33;16.75;;;7.68;;
30617;SDS011;17384;51.214;9.202;2023-11-21T04:20:58;30.73;;;6.72;;
30617;SDS011;17384;51.214;9.202;2023-11-21T04:23:24;13.02;;;6.22;;
30617;SDS011;17384;51.214;9.202;2023-11-21T04:25:50;38.15;;;6.18;;
30617;SDS011;17384;51.214;9.202;2023-11-21T04:28:15;14.45;;;5.82;;
30617;SDS011;17384;51.214;9.202;2023-11-21T04:30:41;8.68;;;4.78;;
30617;SDS011;17384;51.214;9.202;2023-11-21T04:33:06;8.55;;;5.13;;
30617;SDS011;17384;51.214;9.202;2023-11-21T04:35:32;85.47;;;8.65;;
30617;SDS011;17384;51.214;9.202;2023-11-21T04:37:58;12.25;;;6.43;;
30617;SDS011;17384;51.214;9.202;2023-11-21T04:40:23;25.63;;;5.45;;
30617;SDS011;17384;51.214;9.202;2023-11-21T04:42:49;24.27;;;6.30;;
30617;SDS011;17384;51.214;9.202;2023-11-21T04:45:14;71.32;;;6.65;;
30617;SDS011;17384;51.214;9.202;2023-11-21T04:47:41;40.08;;;6.40;;
30617;SDS011;17384;51.214;9.202;2023-11-21T04:50:08;8.05;;;4.93;;
30617;SDS011;17384;51.214;9.202;2023-11-21T04:52:34;50.80;;;7.40;;
30617;SDS011;17384;51.214;9.202;2023-11-21T04:55:00;32.70;;;6.15;;
30617;SDS011;17384;51.214;9.202;2023-11-21T04:57:27;8.52;;;5.63;;
30617;SDS011;17384;51.214;9.202;2023-11-21T04:59:53;14.45;;;6.40;;
30617;SDS011;17384;51.214;9.202;2023-11-21T05:02:19;10.95;;;5.95;;
30617;SDS011;17384;51.214;9.202;2023-11-21T05:04:46;13.35;;;5.88;;
30617;SDS011;17384;51.214;9.202;2023-11-21T05:07:12;12.35;;;5.65;;
30617;SDS011;17384;51.214;9.202;2023-11-21T05:09:40;10.00;;;5.78;;
30617;SDS011;17384;51.214;9.202;2023-11-21T05:12:06;17.48;;;5.72;;
30617;SDS011;17384;51.214;9.202;2023-11-21T05:14:32;11.27;;;5.95;;
30617;SDS011;17384;51.214;9.202;2023-11-21T05:16:58;13.65;;;5.97;;
30617;SDS011;17384;51.214;9.202;2023-11-21T05:19:24;15.18;;;6.35;;
30617;SDS011;17384;51.214;9.202;2023-11-21T05:21:49;10.27;;;5.63;;
30617;SDS011;17384;51.214;9.202;2023-11-21T05:24:15;13.80;;;5.68;;
30617;SDS011;17384;51.214;9.202;2023-11-21T05:26:40;8.93;;;5.57;;
30617;SDS011;17384;51.214;9.202;2023-11-21T05:29:05;10.27;;;5.60;;
30617;SDS011;17384;51.214;9.202;2023-11-21T05:31:31;16.23;;;7.05;;
30617;SDS011;17384;51.214;9.202;2023-11-21T05:33:57;12.80;;;7.03;;
30617;SDS011;17384;51.214;9.202;2023-11-21T05:36:22;15.02;;;6.80;;
30617;SDS011;17384;51.214;9.202;2023-11-21T05:38:48;9.55;;;6.35;;
30617;SDS011;17384;51.214;9.202;2023-11-21T05:41:13;12.23;;;7.10;;
30617;SDS011;17384;51.214;9.202;2023-11-21T05:43:39;10.07;;;6.47;;
30617;SDS011;17384;51.214;9.202;2023-11-21T05:46:05;11.38;;;6.07;;
30617;SDS011;17384;51.214;9.202;2023-11-21T05:48:32;11.63;;;7.18;;
30617;SDS011;17384;51.214;9.202;2023-11-21T05:50:57;11.32;;;6.03;;
30617;SDS011;17384;51.214;9.202;2023-11-21T05:53:25;13.60;;;7.10;;
30617;SDS011;17384;51.214;9.202;2023-11-21T05:55:50;9.77;;;6.72;;
30617;SDS011;17384;51.214;9.202;2023-11-21T05:58:16;15.32;;;6.53;;
30617;SDS011;17384;51.214;9.202;2023-11-21T06:00:41;12.38;;;6.82;;
30617;SDS011;17384;51.214;9.202;2023-11-21T06:03:07;12.32;;;6.63;;
30617;SDS011;17384;51.214;9.202;2023-11-21T06:05:33;19.08;;;7.07;;
30617;SDS011;17384;51.214;9.202;2023-11-21T06:07:59;10.55;;;6.60;;
30617;SDS011;17384;51.214;9.202;2023-11-21T06:10:25;13.65;;;6.63;;
30617;SDS011;17384;51.214;9.202;2023-11-21T06:12:51;12.95;;;6.90;;
30617;SDS011;17384;51.214;9.202;2023-11-21T06:15:18;20.48;;;11.45;;
30617;SDS011;17384;51.214;9.202;2023-11-21T06:17:48;19.63;;;11.52;;
30617;SDS011;17384;51.214;9.202;2023-11-21T06:20:19;18.70;;;11.50;;
30617;SDS011;17384;51.214;9.202;2023-11-21T06:22:46;13.30;;;8.48;;
30617;SDS011;17384;51.214;9.202;2023-11-21T06:25:13;16.05;;;9.82;;
30617;SDS011;17384;51.214;9.202;2023-11-21T06:27:39;20.67;;;11.25;;
30617;SDS011;17384;51.214;9.202;2023-11-21T06:30:08;24.30;;;10.50;;
30617;SDS011;17384;51.214;9.202;2023-11-21T06:32:34;23.35;;;9.20;;
30617;SDS011;17384;51.214;9.202;2023-11-21T06:35:04;16.20;;;7.68;;
30617;SDS011;17384;51.214;9.202;2023-11-21T06:37:30;14.50;;;6.07;;
30617;SDS011;17384;51.214;9.202;2023-11-21T06:39:57;11.27;;;5.53;;
30617;SDS011;17384;51.214;9.202;2023-11-21T06:42:23;12.18;;;6.03;;
30617;SDS011;17384;51.214;9.202;2023-11-21T06:44:49;13.18;;;6.18;;
30617;SDS011;17384;51.214;9.202;2023-11-21T06:47:16;16.65;;;7.00;;
30617;SDS011;17384;51.214;9.202;2023-11-21T06:49:42;12.55;;;6.30;;
30617;SDS011;17384;51.214;9.202;2023-11-21T06:52:08;15.02;;;7.05;;
30617;SDS011;17384;51.214;9.202;2023-11-21T06:54:34;15.73;;;6.85;;
30617;SDS011;17384;51.214;9.202;2023-11-21T06:56:59;9.68;;;5.65;;
30617;SDS011;17384;51.214;9.202;2023-11-21T06:59:25;16.10;;;6.72;;
30617;SDS011;17384;51.214;9.202;2023-11-21T07:01:51;14.80;;;8.32;;
30617;SDS011;17384;51.214;9.202;2023-11-21T07:04:17;16.20;;;6.55;;
30617;SDS011;17384;51.214;9.202;2023-11-21T07:06:43;15.20;;;6.60;;
30617;SDS011;17384;51.214;9.202;2023-11-21T07:09:09;13.93;;;7.68;;
30617;SDS011;17384;51.214;9.202;2023-11-21T07:11:36;19.25;;;7.85;;
30617;SDS011;17384;51.214;9.202;2023-11-21T07:14:03;16.75;;;8.75;;
30617;SDS011;17384;51.214;9.202;2023-11-21T07:16:35;19.80;;;8.77;;
30617;SDS011;17384;51.214;9.202;2023-11-21T07:19:06;15.40;;;9.60;;
30617;SDS011;17384;51.214;9.202;2023-11-21T07:21:34;13.07;;;8.38;;
30617;SDS011;17384;51.214;9.202;2023-11-21T07:24:01;17.58;;;9.07;;
30617;SDS011;17384;51.214;9.202;2023-11-21T07:26:27;15.25;;;8.73;;
30617;SDS011;17384;51.214;9.202;2023-11-21T07:28:53;15.23;;;8.48;;
30617;SDS011;17384;51.214;9.202;2023-11-21T07:31:19;17.50;;;8.82;;
30617;SDS011;17384;51.214;9.202;2023-11-21T07:33:48;17.27;;;8.43;;
30617;SDS011;17384;51.214;9.202;2023-11-21T07:36:13;19.13;;;10.27;;
30617;SDS011;17384;51.214;9.202;2023-11-21T07:38:39;20.50;;;10.18;;
30617;SDS011;17384;51.214;9.202;2023-11-21T07:41:05;19.80;;;9.63;;
30617;SDS011;17384;51.214;9.202;2023-11-21T07:43:33;21.63;;;11.23;;
30617;SDS011;17384;51.214;9.202;2023-11-21T07:46:03;23.92;;;11.48;;
30617;SDS011;17384;51.214;9.202;2023-11-21T07:48:32;22.80;;;10.13;;
30617;SDS011;17384;51.214;9.202;2023-11-21T07:50:58;23.33;;;11.38;;
30617;SDS011;17384;51.214;9.202;2023-11-21T07:53:25;24.88;;;11.90;;
30617;SDS011;17384;51.214;9.202;2023-11-21T07:55:51;26.30;;;12.50;;
30617;SDS011;17384;51.214;9.202;2023-11-21T07:58:17;31.70;;;13.68;;
30617;SDS011;17384;51.214;9.202;2023-11-21T08:00:43;25.20;;;13.50;;
30617;SDS011;17384;51.214;9.202;2023-11-21T08:03:08;27.08;;;13.60;;
30617;SDS011;17384;51.214;9.202;2023-11-21T08:05:34;27.58;;;12.90;;
30617;SDS011;17384;51.214;9.202;2023-11-21T08:07:59;24.65;;;13.10;;
30617;SDS011;17384;51.214;9.202;2023-11-21T08:10:25;29.60;;;14.35;;
30617;SDS011;17384;51.214;9.202;2023-11-21T08:12:51;35.58;;;16.38;;
30617;SDS011;17384;51.214;9.202;2023-11-21T08:15:16;36.20;;;18.00;;
30617;SDS011;17384;51.214;9.202;2023-11-21T08:17:42;44.65;;;20.15;;
30617;SDS011;17384;51.214;9.202;2023-11-21T08:20:07;39.00;;;20.67;;
30617;SDS011;17384;51.214;9.202;2023-11-21T08:22:36;33.45;;;15.82;;
30617;SDS011;17384;51.214;9.202;2023-11-21T08:25:01;45.88;;;20.40;;
30617;SDS011;17384;51.214;9.202;2023-11-21T08:27:29;37.67;;;19.25;;
30617;SDS011;17384;51.214;9.202;2023-11-21T08:29:54;38.10;;;17.30;;
30617;SDS011;17384;51.214;9.202;2023-11-21T08:32:21;31.85;;;16.13;;
30617;SDS011;17384;51.214;9.202;2023-11-21T08:34:47;34.53;;;14.88;;
30617;SDS011;17384;51.214;9.202;2023-11-21T08:37:15;33.42;;;14.88;;
30617;SDS011;17384;51.214;9.202;2023-11-21T08:39:41;32.67;;;14.73;;
30617;SDS011;17384;51.214;9.202;2023-11-21T08:42:07;29.40;;;15.30;;
30617;SDS011;17384;51.214;9.202;2023-11-21T08:44:33;37.20;;;16.77;;
30617;SDS011;17384;51.214;9.202;2023-11-21T08:46:58;34.53;;;16.60;;
30617;SDS011;17384;51.214;9.202;2023-11-21T08:49:24;39.92;;;16.10;;
30617;SDS011;17384;51.214;9.202;2023-11-21T08:51:51;37.53;;;16.33;;
30617;SDS011;17384;51.214;9.202;2023-11-21T08:54:16;35.95;;;16.58;;
30617;SDS011;17384;51.214;9.202;2023-11-21T08:56:43;37.15;;;16.42;;
30617;SDS011;17384;51.214;9.202;2023-11-21T08:59:08;37.97;;;16.33;;
30617;SDS011;17384;51.214;9.202;2023-11-21T09:01:34;36.92;;;16.58;;
30617;SDS011;17384;51.214;9.202;2023-11-21T09:03:59;38.15;;;16.02;;
30617;SDS011;17384;51.214;9.202;2023-11-21T09:06:25;32.28;;;16.00;;
30617;SDS011;17384;51.214;9.202;2023-11-21T09:08:50;32.38;;;16.27;;
30617;SDS011;17384;51.214;9.202;2023-11-21T09:11:17;35.78;;;16.25;;
30617;SDS011;17384;51.214;9.202;2023-11-21T09:13:42;30.92;;;15.25;;
30617;SDS011;17384;51.214;9.202;2023-11-21T09:16:08;36.08;;;16.25;;
30617;SDS011;17384;51.214;9.202;2023-11-21T09:18:33;34.05;;;16.27;;
30617;SDS011;17384;51.214;9.202;2023-11-21T09:20:59;36.70;;;15.43;;
30617;SDS011;17384;51.214;9.202;2023-11-21T09:23:25;41.75;;;17.15;;
30617;SDS011;17384;51.214;9.202;2023-11-21T09:25:50;36.10;;;17.15;;
30617;SDS011;17384;51.214;9.202;2023-11-21T09:28:17;31.98;;;16.45;;
30617;SDS011;17384;51.214;9.202;2023-11-21T09:30:43;38.05;;;16.35;;
30617;SDS011;17384;51.214;9.202;2023-11-21T09:33:08;42.63;;;17.25;;
30617;SDS011;17384;51.214;9.202;2023-11-21T09:35:37;37.30;;;17.27;;
30617;SDS011;17384;51.214;9.202;2023-11-21T09:38:03;40.08;;;16.23;;
30617;SDS011;17384;51.214;9.202;2023-11-21T09:40:35;34.35;;;16.55;;
30617;SDS011;17384;51.214;9.202;2023-11-21T09:43:00;39.35;;;16.63;;
30617;SDS011;17384;51.214;9.202;2023-11-21T09:45:36;35.53;;;16.40;;
30617;SDS011;17384;51.214;9.202;2023-11-21T09:48:04;40.58;;;17.85;;
30617;SDS011;17384;51.214;9.202;2023-11-21T09:50:31;39.53;;;18.42;;
30617;SDS011;17384;51.214;9.202;2023-11-21T09:53:16;41.00;;;17.10;;
30617;SDS011;17384;51.214;9.202;2023-11-21T09:55:46;38.42;;;16.63;;
30617;SDS011;17384;51.214;9.202;2023-11-21T09:58:14;39.47;;;17.77;;
30617;SDS011;17384;51.214;9.202;2023-11-21T10:00:43;40.67;;;17.38;;
30617;SDS011;17384;51.214;9.202;2023-11-21T10:03:11;35.90;;;16.60;;
30617;SDS011;17384;51.214;9.202;2023-11-21T10:05:37;38.15;;;17.77;;
30617;SDS011;17384;51.214;9.202;2023-11-21T10:08:09;43.08;;;17.17;;
30617;SDS011;17384;51.214;9.202;2023-11-21T10:10:45;40.78;;;17.95;;
30617;SDS011;17384;51.214;9.202;2023-11-21T10:13:14;37.40;;;17.13;;
30617;SDS011;17384;51.214;9.202;2023-11-21T10:15:42;47.58;;;19.27;;
30617;SDS011;17384;51.214;9.202;2023-11-21T10:18:13;45.42;;;17.55;;
30617;SDS011;17384;51.214;9.202;2023-11-21T10:20:42;46.28;;;18.33;;
30617;SDS011;17384;51.214;9.202;2023-11-21T10:23:08;46.60;;;18.50;;
30617;SDS011;17384;51.214;9.202;2023-11-21T10:25:36;40.25;;;19.13;;
30617;SDS011;17384;51.214;9.202;2023-11-21T10:28:02;44.78;;;18.98;;
30617;SDS011;17384;51.214;9.202;2023-11-21T10:30:34;52.00;;;19.55;;
30617;SDS011;17384;51.214;9.202;2023-11-21T10:33:02;47.45;;;19.75;;
30617;SDS011;17384;51.214;9.202;2023-11-21T10:36:06;46.70;;;19.75;;
30617;SDS011;17384;51.214;9.202;2023-11-21T10:38:26;45.55;;;20.65;;
30617;SDS011;17384;51.214;9.202;2023-11-21T10:40:53;48.20;;;18.85;;
30617;SDS011;17384;51.214;9.202;2023-11-21T10:43:20;43.35;;;19.15;;
30617;SDS011;17384;51.214;9.202;2023-11-21T10:45:50;43.60;;;20.30;;
30617;SDS011;17384;51.214;9.202;2023-11-21T10:48:15;47.22;;;18.77;;
30617;SDS011;17384;51.214;9.202;2023-11-21T10:50:41;49.47;;;19.55;;
30617;SDS011;17384;51.214;9.202;2023-11-21T10:53:08;55.33;;;20.25;;
30617;SDS011;17384;51.214;9.202;2023-11-21T10:55:33;45.58;;;19.55;;
30617;SDS011;17384;51.214;9.202;2023-11-21T10:58:00;49.42;;;19.23;;
30617;SDS011;17384;51.214;9.202;2023-11-21T11:00:28;41.40;;;19.85;;
30617;SDS011;17384;51.214;9.202;2023-11-21T11:02:54;44.53;;;18.65;;
30617;SDS011;17384;51.214;9.202;2023-11-21T11:05:21;45.80;;;18.30;;
30617;SDS011;17384;51.214;9.202;2023-11-21T11:08:09;38.55;;;17.00;;
30617;SDS011;17384;51.214;9.202;2023-11-21T11:10:37;38.10;;;16.15;;
30617;SDS011;17384;51.214;9.202;2023-11-21T11:13:03;42.55;;;16.70;;
30617;SDS011;17384;51.214;9.202;2023-11-21T11:15:31;36.15;;;16.00;;
30617;SDS011;17384;51.214;9.202;2023-11-21T11:17:57;30.50;;;12.75;;
30617;SDS011;17384;51.214;9.202;2023-11-21T11:20:23;24.42;;;12.10;;
30617;SDS011;17384;51.214;9.202;2023-11-21T11:25:38;21.73;;;10.35;;
30617;SDS011;17384;51.214;9.202;2023-11-21T11:28:07;28.00;;;12.18;;
30617;SDS011;17384;51.214;9.202;2023-11-21T11:34:16;30.70;;;11.63;;
30617;SDS011;17384;51.214;9.202;2023-11-21T11:38:59;27.77;;;12.52;;
30617;SDS011;17384;51.214;9.202;2023-11-21T11:41:27;34.00;;;12.27;;
30617;SDS011;17384;51.214;9.202;2023-11-21T11:43:57;31.10;;;12.07;;
30617;SDS011;17384;51.214;9.202;2023-11-21T11:46:40;26.85;;;12.60;;
30617;SDS011;17384;51.214;9.202;2023-11-21T11:49:06;28.57;;;12.23;;
30617;SDS011;17384;51.214;9.202;2023-11-21T11:51:33;27.65;;;12.10;;
30617;SDS011;17384;51.214;9.202;2023-11-21T11:54:00;28.35;;;11.32;;
30617;SDS011;17384;51.214;9.202;2023-11-21T11:56:30;19.33;;;9.98;;
30617;SDS011;17384;51.214;9.202;2023-11-21T11:59:00;22.95;;;11.27;;
30617;SDS011;17384;51.214;9.202;2023-11-21T12:01:34;21.60;;;10.25;;
30617;SDS011;17384;51.214;9.202;2023-11-21T12:06:51;20.52;;;9.50;;
30617;SDS011;17384;51.214;9.202;2023-11-21T12:09:21;16.27;;;8.95;;
30617;SDS011;17384;51.214;9.202;2023-11-21T12:11:49;15.57;;;7.75;;
30617;SDS011;17384;51.214;9.202;2023-11-21T12:14:15;15.40;;;7.55;;
30617;SDS011;17384;51.214;9.202;2023-11-21T12:16:41;21.23;;;9.63;;
30617;SDS011;17384;51.214;9.202;2023-11-21T12:19:08;16.48;;;8.68;;
30617;SDS011;17384;51.214;9.202;2023-11-21T12:21:36;17.67;;;8.68;;
30617;SDS011;17384;51.214;9.202;2023-11-21T12:24:02;17.77;;;10.05;;
30617;SDS011;17384;51.214;9.202;2023-11-21T12:26:28;15.80;;;8.48;;
30617;SDS011;17384;51.214;9.202;2023-11-21T12:28:54;17.38;;;8.15;;
30617;SDS011;17384;51.214;9.202;2023-11-21T12:31:22;14.20;;;7.45;;
30617;SDS011;17384;51.214;9.202;2023-11-21T12:33:48;15.35;;;8.30;;
30617;SDS011;17384;51.214;9.202;2023-11-21T12:36:14;16.00;;;7.55;;
30617;SDS011;17384;51.214;9.202;2023-11-21T12:38:41;14.52;;;6.85;;
30617;SDS011;17384;51.214;9.202;2023-11-21T12:41:07;13.52;;;7.30;;
30617;SDS011;17384;51.214;9.202;2023-11-21T12:43:33;11.48;;;6.57;;
30617;SDS011;17384;51.214;9.202;2023-11-21T12:46:09;11.82;;;6.82;;
30617;SDS011;17384;51.214;9.202;2023-11-21T12:48:38;11.73;;;7.07;;
30617;SDS011;17384;51.214;9.202;2023-11-21T12:51:09;9.70;;;6.25;;
30617;SDS011;17384;51.214;9.202;2023-11-21T12:53:37;12.95;;;7.78;;
30617;SDS011;17384;51.214;9.202;2023-11-21T12:56:06;14.52;;;7.00;;
30617;SDS011;17384;51.214;9.202;2023-11-21T12:58:39;14.10;;;8.18;;
30617;SDS011;17384;51.214;9.202;2023-11-21T13:01:06;23.95;;;10.85;;
30617;SDS011;17384;51.214;9.202;2023-11-21T13:03:39;36.05;;;14.02;;
30617;SDS011;17384;51.214;9.202;2023-11-21T13:06:05;21.80;;;11.18;;
30617;SDS011;17384;51.214;9.202;2023-11-21T13:08:32;17.80;;;9.98;;
30617;SDS011;17384;51.214;9.202;2023-11-21T13:10:58;16.33;;;8.23;;
30617;SDS011;17384;51.214;9.202;2023-11-21T13:13:26;15.68;;;8.40;;
30617;SDS011;17384;51.214;9.202;2023-11-21T13:15:54;15.35;;;7.93;;
30617;SDS011;17384;51.214;9.202;2023-11-21T13:18:21;14.23;;;8.15;;
30617;SDS011;17384;51.214;9.202;2023-11-21T13:20:48;12.88;;;7.30;;
30617;SDS011;17384;51.214;9.202;2023-11-21T13:23:14;15.45;;;7.85;;
30617;SDS011;17384;51.214;9.202;2023-11-21T13:25:42;11.05;;;6.40;;
30617;SDS011;17384;51.214;9.202;2023-11-21T13:28:10;16.58;;;7.90;;
30617;SDS011;17384;51.214;9.202;2023-11-21T13:30:37;12.98;;;8.30;;
30617;SDS011;17384;51.214;9.202;2023-11-21T13:33:05;14.45;;;7.53;;
30617;SDS011;17384;51.214;9.202;2023-11-21T13:35:37;13.27;;;6.95;;
30617;SDS011;17384;51.214;9.202;2023-11-21T13:38:07;11.32;;;6.53;;
30617;SDS011;17384;51.214;9.202;2023-11-21T13:40:35;11.80;;;6.10;;
30617;SDS011;17384;51.214;9.202;2023-11-21T13:43:08;10.68;;;6.38;;
30617;SDS011;17384;51.214;9.202;2023-11-21T13:45:38;11.50;;;6.82;;
30617;SDS011;17384;51.214;9.202;2023-11-21T13:48:05;20.65;;;7.30;;
30617;SDS011;17384;51.214;9.202;2023-11-21T13:50:38;13.25;;;7.55;;
30617;SDS011;17384;51.214;9.202;2023-11-21T13:53:04;13.23;;;6.78;;
30617;SDS011;17384;51.214;9.202;2023-11-21T13:55:50;10.55;;;5.93;;
30617;SDS011;17384;51.214;9.202;2023-11-21T13:58:19;10.30;;;6.47;;
30617;SDS011;17384;51.214;9.202;2023-11-21T14:00:48;12.90;;;7.88;;
30617;SDS011;17384;51.214;9.202;2023-11-21T14:05:48;15.48;;;9.05;;
30617;SDS011;17384;51.214;9.202;2023-11-21T14:08:19;19.10;;;10.10;;
30617;SDS011;17384;51.214;9.202;2023-11-21T14:10:49;20.98;;;10.63;;
30617;SDS011;17384;51.214;9.202;2023-11-21T14:13:16;20.77;;;11.82;;
30617;SDS011;17384;51.214;9.202;2023-11-21T14:15:42;25.83;;;13.68;;
30617;SDS011;17384;51.214;9.202;2023-11-21T14:18:12;27.33;;;12.85;;
30617;SDS011;17384;51.214;9.202;2023-11-21T14:20:42;22.00;;;11.85;;
30617;SDS011;17384;51.214;9.202;2023-11-21T14:23:09;18.70;;;10.75;;
30617;SDS011;17384;51.214;9.202;2023-11-21T14:25:36;20.58;;;11.50;;
30617;SDS011;17384;51.214;9.202;2023-11-21T14:28:07;18.15;;;11.15;;
30617;SDS011;17384;51.214;9.202;2023-11-21T14:30:32;21.13;;;10.85;;
30617;SDS011;17384;51.214;9.202;2023-11-21T14:33:00;13.32;;;8.75;;
30617;SDS011;17384;51.214;9.202;2023-11-21T14:35:27;8.65;;;6.70;;
30617;SDS011;17384;51.214;9.202;2023-11-21T14:37:53;9.43;;;6.40;;
30617;SDS011;17384;51.214;9.202;2023-11-21T14:40:18;9.07;;;6.20;;
30617;SDS011;17384;51.214;9.202;2023-11-21T14:42:49;10.77;;;7.38;;
30617;SDS011;17384;51.214;9.202;2023-11-21T14:45:19;10.10;;;7.40;;